Time,TemperatureF,DewpointF,PressureIn,WindDirection,WindDirectionDegrees,WindSpeedMPH,WindSpeedGustMPH,Humidity,HourlyPrecipIn,Conditions,Clouds,dailyrainin,SolarRadiationWatts/m^2,SoftwareType,DateUTC
2013-05-25 00:01:00,47.9,46.5,29.83,WNW,297,5.0,7.0,95,0.01,,OVC031,0.34,0.00,VWS V14.01,2013-05-25 04:01:00,
2013-05-25 00:11:00,47.9,46.5,29.83,NW,326,9.0,10.0,95,0.01,,OVC015,0.00,0.00,VWS V14.01,2013-05-25 04:11:00,
2013-05-25 00:21:00,47.9,46.5,29.81,NW,307,5.0,11.0,95,0.01,,OVC015,0.00,0.00,VWS V14.01,2013-05-25 04:21:00,
2013-05-25 00:31:00,47.9,46.5,29.82,North,352,0.0,12.0,95,0.01,,OVC015,0.00,0.00,VWS V14.01,2013-05-25 04:31:00,
2013-05-25 00:41:00,47.4,46.6,29.82,NNE,12,2.0,8.0,97,0.06,,OVC015,0.05,0.00,VWS V14.01,2013-05-25 04:41:00,
2013-05-25 00:51:00,47.4,46.6,29.82,NNW,344,1.0,6.0,97,0.08,,OVC015,0.08,0.00,VWS V14.01,2013-05-25 04:51:00,
2013-05-25 01:01:00,47.4,46.6,29.81,North,0,6.0,10.0,97,0.09,,OVC015,0.09,0.00,VWS V14.01,2013-05-25 05:01:00,
2013-05-25 01:11:00,47.6,46.8,29.81,North,354,0.0,7.0,97,0.09,,OVC026,0.09,0.00,VWS V14.01,2013-05-25 05:11:00,
2013-05-25 01:21:00,47.6,47.1,29.80,North,1,1.0,4.0,98,0.09,,OVC026,0.09,0.00,VWS V14.01,2013-05-25 05:21:00,
2013-05-25 01:31:00,47.4,46.9,29.80,North,8,3.0,5.0,98,0.09,,OVC026,0.09,0.00,VWS V14.01,2013-05-25 05:31:00,
2013-05-25 01:41:00,47.6,47.1,29.80,NNW,333,3.0,6.0,98,0.09,,OVC026,0.09,0.00,VWS V14.01,2013-05-25 05:41:00,
2013-05-25 01:51:00,47.4,46.6,29.79,NW,304,0.0,5.0,97,0.04,,OVC026,0.09,0.00,VWS V14.01,2013-05-25 05:51:00,
2013-05-25 02:01:00,47.6,46.8,29.79,NW,318,3.0,6.0,97,0.01,,OVC026,0.09,0.00,VWS V14.01,2013-05-25 06:01:00,
2013-05-25 02:11:00,47.6,46.8,29.79,NNW,336,2.0,6.0,97,0.00,,OVC029,0.09,0.00,VWS V14.01,2013-05-25 06:11:00,
2013-05-25 02:21:00,47.6,46.8,29.78,NW,326,1.0,5.0,97,0.00,,OVC029,0.09,0.00,VWS V14.01,2013-05-25 06:21:00,
2013-05-25 02:31:00,47.7,46.9,29.79,WNW,300,3.0,7.0,97,0.00,,OVC029,0.09,0.00,VWS V14.01,2013-05-25 06:31:00,
2013-05-25 02:41:00,47.6,47.1,29.79,NW,324,1.0,6.0,98,0.00,,OVC029,0.09,0.00,VWS V14.01,2013-05-25 06:41:00,
2013-05-25 02:51:00,47.6,47.1,29.77,NNE,30,0.0,5.0,98,0.01,,OVC029,0.10,0.00,VWS V14.01,2013-05-25 06:51:00,
2013-05-25 03:01:00,47.6,47.1,29.78,NNW,338,1.0,6.0,98,0.01,,OVC029,0.10,0.00,VWS V14.01,2013-05-25 07:01:00,
2013-05-25 03:11:00,47.3,46.8,29.78,NW,312,2.0,7.0,98,0.01,,OVC024,0.10,0.00,VWS V14.01,2013-05-25 07:11:00,
2013-05-25 03:21:00,47.1,46.6,29.79,NNW,341,0.0,7.0,98,0.01,,OVC024,0.10,0.00,VWS V14.01,2013-05-25 07:21:00,
2013-05-25 03:31:00,47.0,46.5,29.79,WNW,294,7.0,7.0,98,0.02,,OVC024,0.11,0.00,VWS V14.01,2013-05-25 07:31:00,
2013-05-25 03:41:00,46.8,46.3,29.79,NNW,327,4.0,9.0,98,0.03,,OVC025,0.12,0.00,VWS V14.01,2013-05-25 07:41:00,
2013-05-25 03:51:00,46.8,46.3,29.78,NNW,337,3.0,7.0,98,0.04,,OVC025,0.13,0.00,VWS V14.01,2013-05-25 07:51:00,
2013-05-25 04:01:00,46.5,46.0,29.77,North,350,1.0,7.0,98,0.04,,OVC025,0.14,0.00,VWS V14.01,2013-05-25 08:01:00,
2013-05-25 04:11:00,46.5,46.0,29.77,NNW,331,3.0,7.0,98,0.05,,OVC024,0.15,0.00,VWS V14.01,2013-05-25 08:11:00,
2013-05-25 04:21:00,46.5,46.0,29.77,North,8,5.0,6.0,98,0.05,,OVC024,0.15,0.00,VWS V14.01,2013-05-25 08:21:00,
2013-05-25 04:31:00,46.7,46.2,29.77,NNW,346,3.0,8.0,98,0.05,,OVC024,0.15,0.00,VWS V14.01,2013-05-25 08:31:00,
2013-05-25 04:41:00,46.7,46.2,29.77,NNE,33,1.0,9.0,98,0.06,,OVC025,0.17,0.00,VWS V14.01,2013-05-25 08:41:00,
2013-05-25 04:51:00,46.5,46.0,29.77,WNW,290,2.0,4.0,98,0.07,,OVC025,0.19,0.00,VWS V14.01,2013-05-25 08:51:00,
2013-05-25 05:01:00,46.4,45.9,29.77,NNW,328,3.0,6.0,98,0.07,,OVC025,0.20,0.00,VWS V14.01,2013-05-25 09:01:00,
2013-05-25 05:11:00,46.2,45.7,29.77,NW,309,4.0,7.0,98,0.08,,BKN023,0.22,0.00,VWS V14.01,2013-05-25 09:11:00,
2013-05-25 05:21:00,46.1,45.6,29.78,NNW,328,5.0,11.0,98,0.08,,BKN023,0.23,0.00,VWS V14.01,2013-05-25 09:21:00,
2013-05-25 05:31:00,46.0,45.5,29.78,WNW,289,3.0,9.0,98,0.10,,BKN023,0.25,0.00,VWS V14.01,2013-05-25 09:31:00,
2013-05-25 05:41:00,46.0,45.5,29.78,WSW,253,0.0,10.0,98,0.12,,BKN023,0.27,0.00,VWS V14.01,2013-05-25 09:41:00,
2013-05-25 05:51:00,46.1,45.6,29.77,NNW,331,2.0,9.0,98,0.13,,BKN023,0.30,5.00,VWS V14.01,2013-05-25 09:51:00,
2013-05-25 06:01:00,46.0,45.5,29.77,NNW,329,2.0,6.0,98,0.13,,BKN023,0.32,12.00,VWS V14.01,2013-05-25 10:01:00,
2013-05-25 06:11:00,46.2,45.7,29.77,NNW,330,2.0,4.0,98,0.13,,OVC120,0.33,11.00,VWS V14.01,2013-05-25 10:11:00,
2013-05-25 06:21:00,46.1,45.6,29.77,West,281,5.0,7.0,98,0.11,,OVC120,0.33,42.00,VWS V14.01,2013-05-25 10:21:00,
2013-05-25 06:31:00,46.1,45.6,29.78,NNW,330,7.0,11.0,98,0.10,,OVC120,0.33,12.00,VWS V14.01,2013-05-25 10:31:00,
2013-05-25 06:41:00,46.0,45.5,29.78,NW,319,2.0,10.0,98,0.09,,OVC120,0.34,12.00,VWS V14.01,2013-05-25 10:41:00,
2013-05-25 06:51:00,46.0,45.5,29.78,NNW,338,1.0,11.0,98,0.11,,OVC120,0.38,25.00,VWS V14.01,2013-05-25 10:51:00,
2013-05-25 07:11:00,46.2,45.7,29.76,NW,304,4.0,5.0,98,0.10,,OVC120,0.40,63.00,VWS V14.01,2013-05-25 11:11:00,
2013-05-25 07:21:00,46.5,46.0,29.76,NW,319,1.0,6.0,98,0.08,,OVC120,0.41,42.00,VWS V14.01,2013-05-25 11:21:00,
2013-05-25 07:31:00,47.0,46.5,29.76,NW,325,2.0,4.0,98,0.08,,OVC120,0.41,58.00,VWS V14.01,2013-05-25 11:31:00,
2013-05-25 07:41:00,46.8,46.3,29.76,WNW,293,4.0,5.0,98,0.08,,OVC028,0.41,40.00,VWS V14.01,2013-05-25 11:41:00,
2013-05-25 07:51:00,46.8,46.3,29.76,WNW,302,4.0,6.0,98,0.07,,OVC028,0.41,65.00,VWS V14.01,2013-05-25 11:51:00,
2013-05-25 08:01:00,46.7,46.2,29.76,WNW,287,6.0,9.0,98,0.03,,OVC028,0.41,72.00,VWS V14.01,2013-05-25 12:01:00,
2013-05-25 08:11:00,46.5,46.0,29.76,WNW,300,3.0,10.0,98,0.01,,OVC028,0.41,51.00,VWS V14.01,2013-05-25 12:11:00,
2013-05-25 08:21:00,46.7,46.2,29.76,WNW,293,7.0,11.0,98,0.02,,OVC028,0.42,69.00,VWS V14.01,2013-05-25 12:21:00,
2013-05-25 08:31:00,46.5,46.0,29.76,WNW,301,5.0,10.0,98,0.01,,OVC028,0.42,44.00,VWS V14.01,2013-05-25 12:31:00,
2013-05-25 08:41:00,46.4,45.6,29.76,North,358,5.0,6.0,97,0.02,,OVC034,0.43,69.00,VWS V14.01,2013-05-25 12:41:00,
2013-05-25 08:51:00,46.8,46.3,29.76,WNW,293,4.0,10.0,98,0.05,,OVC034,0.46,95.00,VWS V14.01,2013-05-25 12:51:00,
2013-05-25 09:01:00,46.8,46.3,29.76,NW,309,3.0,10.0,98,0.05,,OVC034,0.46,84.00,VWS V14.01,2013-05-25 13:01:00,
2013-05-25 09:11:00,46.8,46.3,29.76,NW,309,3.0,9.0,98,0.05,,OVC034,0.46,60.00,VWS V14.01,2013-05-25 13:11:00,
2013-05-25 09:21:00,46.8,46.3,29.76,NW,315,1.0,9.0,98,0.07,,OVC034,0.48,100.00,VWS V14.01,2013-05-25 13:21:00,
2013-05-25 09:31:00,46.8,46.0,29.76,NNW,336,5.0,9.0,97,0.06,,OVC034,0.48,123.00,VWS V14.01,2013-05-25 13:31:00,
2013-05-25 09:41:00,47.4,46.9,29.76,WNW,298,4.0,7.0,98,0.07,,OVC036,0.49,114.00,VWS V14.01,2013-05-25 13:41:00,
2013-05-25 09:51:00,47.3,46.5,29.76,NNE,13,1.0,6.0,97,0.06,,OVC036,0.49,135.00,VWS V14.01,2013-05-25 13:51:00,
2013-05-25 10:01:00,47.6,47.1,29.75,WNW,300,7.0,9.0,98,0.04,,OVC036,0.50,178.00,VWS V14.01,2013-05-25 14:01:00,
2013-05-25 10:11:00,47.6,46.8,29.75,North,351,4.0,9.0,97,0.04,,OVC033,0.50,123.00,VWS V14.01,2013-05-25 14:11:00,
2013-05-25 10:21:00,47.7,47.2,29.75,NW,316,1.0,9.0,98,0.05,,OVC033,0.51,193.00,VWS V14.01,2013-05-25 14:21:00,
2013-05-25 10:31:00,47.7,46.9,29.75,NNE,21,4.0,6.0,97,0.04,,OVC033,0.52,121.00,VWS V14.01,2013-05-25 14:31:00,
2013-05-25 10:41:00,47.4,46.6,29.75,NNW,337,4.0,9.0,97,0.04,,OVC033,0.52,109.00,VWS V14.01,2013-05-25 14:41:00,
2013-05-25 10:51:00,47.6,46.8,29.75,WNW,303,5.0,9.0,97,0.04,,OVC033,0.53,141.00,VWS V14.01,2013-05-25 14:51:00,
2013-05-25 11:01:00,47.4,46.3,29.76,WNW,301,3.0,11.0,96,0.05,,OVC033,0.54,125.00,VWS V14.01,2013-05-25 15:01:00,
2013-05-25 11:11:00,47.4,46.6,29.76,NW,323,3.0,9.0,97,0.05,,OVC039,0.55,139.00,VWS V14.01,2013-05-25 15:11:00,
2013-05-25 11:21:00,47.7,46.9,29.75,NW,324,1.0,6.0,97,0.07,,OVC039,0.57,163.00,VWS V14.01,2013-05-25 15:21:00,
2013-05-25 11:31:00,48.3,47.5,29.75,North,4,6.0,10.0,97,0.06,,OVC039,0.57,221.00,VWS V14.01,2013-05-25 15:31:00,
2013-05-25 11:41:00,48.3,47.5,29.75,North,358,4.0,10.0,97,0.06,,BKN028,0.58,216.00,VWS V14.01,2013-05-25 15:41:00,
2013-05-25 11:51:00,48.3,47.5,29.74,NNE,20,2.0,10.0,97,0.06,,BKN028,0.58,195.00,VWS V14.01,2013-05-25 15:51:00,
2013-05-25 12:01:00,48.3,47.2,29.73,WNW,301,6.0,13.0,96,0.05,,BKN028,0.58,142.00,VWS V14.01,2013-05-25 16:01:00,
2013-05-25 12:11:00,47.9,46.8,29.73,WNW,301,3.0,12.0,96,0.04,,OVC034,0.58,165.00,VWS V14.01,2013-05-25 16:11:00,
2013-05-25 12:21:00,47.7,46.6,29.73,WNW,300,5.0,14.0,96,0.03,,OVC034,0.58,204.00,VWS V14.01,2013-05-25 16:21:00,
2013-05-25 12:31:00,47.7,46.3,29.72,North,355,2.0,11.0,95,0.01,,OVC034,0.58,178.00,VWS V14.01,2013-05-25 16:31:00,
2013-05-25 12:41:00,47.7,46.3,29.72,NNW,341,0.0,12.0,95,0.01,,OVC034,0.58,148.00,VWS V14.01,2013-05-25 16:41:00,
2013-05-25 12:51:00,47.7,46.3,29.72,NW,311,4.0,10.0,95,0.00,,OVC034,0.58,134.00,VWS V14.01,2013-05-25 16:51:00,
2013-05-25 13:01:00,47.4,45.8,29.72,NW,311,5.0,13.0,94,0.00,,OVC034,0.58,156.00,VWS V14.01,2013-05-25 17:01:00,
2013-05-25 13:11:00,47.1,45.5,29.72,NW,306,3.0,13.0,94,0.00,,OVC036,0.58,148.00,VWS V14.01,2013-05-25 17:11:00,
2013-05-25 13:21:00,47.6,46.0,29.72,WNW,291,9.0,14.0,94,0.00,,OVC036,0.58,167.00,VWS V14.01,2013-05-25 17:21:00,
2013-05-25 13:31:00,47.3,45.4,29.71,WNW,297,12.0,14.0,93,0.00,,OVC036,0.58,216.00,VWS V14.01,2013-05-25 17:31:00,
2013-05-25 13:41:00,47.4,45.2,29.71,NW,305,6.0,14.0,92,0.00,,OVC036,0.58,223.00,VWS V14.01,2013-05-25 17:41:00,
2013-05-25 13:51:00,47.7,45.5,29.72,WNW,292,3.0,12.0,92,0.00,,OVC036,0.58,169.00,VWS V14.01,2013-05-25 17:51:00,
2013-05-25 14:01:00,47.3,45.1,29.72,NNW,334,3.0,12.0,92,0.00,,OVC036,0.58,153.00,VWS V14.01,2013-05-25 18:01:00,
2013-05-25 14:11:00,47.3,45.4,29.72,NNW,333,9.0,11.0,93,0.01,,OVC035,0.59,123.00,VWS V14.01,2013-05-25 18:11:00,
2013-05-25 14:21:00,46.8,44.9,29.72,WNW,284,4.0,12.0,93,0.01,,OVC035,0.59,127.00,VWS V14.01,2013-05-25 18:21:00,
2013-05-25 14:31:00,46.5,44.6,29.72,North,7,3.0,11.0,93,0.01,,OVC035,0.59,158.00,VWS V14.01,2013-05-25 18:31:00,
2013-05-25 14:41:00,46.7,45.1,29.72,NW,312,7.0,15.0,94,0.02,,OVC035,0.60,128.00,VWS V14.01,2013-05-25 18:41:00,
2013-05-25 14:51:00,46.1,44.5,29.72,NW,326,5.0,14.0,94,0.02,,OVC035,0.60,111.00,VWS V14.01,2013-05-25 18:51:00,
2013-05-25 15:01:00,46.1,44.5,29.72,NNW,331,3.0,11.0,94,0.02,,OVC035,0.60,121.00,VWS V14.01,2013-05-25 19:01:00,
2013-05-25 15:11:00,46.0,44.4,29.72,NNW,337,6.0,13.0,94,0.03,,OVC032,0.61,127.00,VWS V14.01,2013-05-25 19:11:00,
2013-05-25 15:21:00,45.8,44.2,29.71,WNW,285,10.0,15.0,94,0.02,,OVC032,0.61,111.00,VWS V14.01,2013-05-25 19:21:00,
2013-05-25 15:31:00,45.7,44.1,29.71,NW,322,12.0,15.0,94,0.02,,OVC032,0.61,98.00,VWS V14.01,2013-05-25 19:31:00,
2013-05-25 15:41:00,45.7,44.1,29.71,NW,325,7.0,12.0,94,0.02,,OVC032,0.61,107.00,VWS V14.01,2013-05-25 19:41:00,
2013-05-25 15:51:00,46.1,44.5,29.70,NW,311,3.0,9.0,94,0.01,,OVC032,0.61,97.00,VWS V14.01,2013-05-25 19:51:00,
2013-05-25 16:01:00,46.1,44.2,29.70,NW,309,3.0,10.0,93,0.01,,OVC032,0.61,74.00,VWS V14.01,2013-05-25 20:01:00,
2013-05-25 16:11:00,46.1,44.2,29.70,NW,307,7.0,10.0,93,0.01,,OVC032,0.61,79.00,VWS V14.01,2013-05-25 20:11:00,
2013-05-25 16:21:00,46.0,43.5,29.70,NW,314,5.0,15.0,91,0.00,,OVC032,0.61,70.00,VWS V14.01,2013-05-25 20:21:00,
2013-05-25 16:31:00,46.0,43.0,29.70,North,1,5.0,13.0,89,0.00,,OVC032,0.61,77.00,VWS V14.01,2013-05-25 20:31:00,
2013-05-25 16:41:00,46.1,42.8,29.70,NW,304,10.0,14.0,88,0.00,,OVC028,0.61,67.00,VWS V14.01,2013-05-25 20:41:00,
2013-05-25 16:51:00,46.1,42.8,29.70,NW,311,3.0,10.0,88,0.00,,OVC028,0.61,58.00,VWS V14.01,2013-05-25 20:51:00,
2013-05-25 17:01:00,46.1,42.5,29.70,NW,324,5.0,11.0,87,0.00,,OVC028,0.61,53.00,VWS V14.01,2013-05-25 21:01:00,
2013-05-25 17:11:00,46.2,42.0,29.70,NW,324,5.0,16.0,85,0.00,,OVC028,0.61,49.00,VWS V14.01,2013-05-25 21:11:00,
2013-05-25 17:21:00,46.2,41.3,29.70,WNW,297,7.0,11.0,83,0.00,,OVC028,0.61,40.00,VWS V14.01,2013-05-25 21:21:00,
2013-05-25 17:31:00,46.1,41.2,29.70,WNW,299,7.0,14.0,83,0.00,,OVC028,0.61,47.00,VWS V14.01,2013-05-25 21:31:00,
2013-05-25 17:41:00,46.2,41.0,29.70,West,274,7.0,11.0,82,0.00,,OVC028,0.61,53.00,VWS V14.01,2013-05-25 21:41:00,
2013-05-25 17:51:00,46.2,41.0,29.70,WNW,288,6.0,12.0,82,0.00,,OVC028,0.61,53.00,VWS V14.01,2013-05-25 21:51:00,
2013-05-25 18:01:00,46.2,40.4,29.70,West,275,7.0,10.0,80,0.00,,OVC028,0.61,51.00,VWS V14.01,2013-05-25 22:01:00,
2013-05-25 18:11:00,46.1,40.3,29.70,NW,316,7.0,12.0,80,0.00,,OVC035,0.61,32.00,VWS V14.01,2013-05-25 22:11:00,
2013-05-25 18:21:00,46.1,40.3,29.70,North,0,7.0,12.0,80,0.00,,OVC035,0.61,33.00,VWS V14.01,2013-05-25 22:21:00,
2013-05-25 18:31:00,46.0,39.5,29.70,North,352,5.0,9.0,78,0.00,,OVC035,0.61,35.00,VWS V14.01,2013-05-25 22:31:00,
2013-05-25 18:41:00,45.8,39.3,29.70,NNW,345,5.0,11.0,78,0.00,,OVC035,0.61,28.00,VWS V14.01,2013-05-25 22:41:00,
2013-05-25 18:51:00,45.8,39.3,29.71,North,0,3.0,7.0,78,0.00,,OVC035,0.61,25.00,VWS V14.01,2013-05-25 22:51:00,
2013-05-25 19:01:00,45.4,39.0,29.72,NW,307,5.0,12.0,78,0.00,,OVC035,0.61,23.00,VWS V14.01,2013-05-25 23:01:00,
2013-05-25 19:11:00,45.2,39.1,29.72,NNW,337,6.0,13.0,79,0.00,,OVC038,0.61,16.00,VWS V14.01,2013-05-25 23:11:00,
2013-05-25 19:21:00,44.9,39.1,29.72,NW,308,5.0,15.0,80,0.00,,OVC038,0.61,19.00,VWS V14.01,2013-05-25 23:21:00,
2013-05-25 19:31:00,44.5,39.4,29.72,NW,315,4.0,14.0,82,0.00,,OVC038,0.61,18.00,VWS V14.01,2013-05-25 23:31:00,
2013-05-25 19:41:00,43.8,39.0,29.72,NW,318,5.0,10.0,83,0.00,,OVC038,0.61,11.00,VWS V14.01,2013-05-25 23:41:00,
2013-05-25 19:51:00,43.2,39.0,29.72,NNW,345,11.0,16.0,85,0.00,,OVC038,0.61,5.00,VWS V14.01,2013-05-25 23:51:00,
2013-05-25 20:01:00,42.6,39.3,29.72,NNW,342,3.0,14.0,88,0.01,,OVC038,0.62,0.00,VWS V14.01,2013-05-26 00:01:00,
2013-05-25 20:11:00,41.9,39.2,29.72,NW,323,4.0,15.0,90,0.03,,OVC038,0.64,0.00,VWS V14.01,2013-05-26 00:11:00,
2013-05-25 20:21:00,41.5,39.1,29.72,WNW,293,10.0,20.0,91,0.05,,OVC038,0.66,0.00,VWS V14.01,2013-05-26 00:21:00,
2013-05-25 20:31:00,40.8,38.7,29.72,NW,312,9.0,18.0,92,0.09,,OVC038,0.70,0.00,VWS V14.01,2013-05-26 00:31:00,
2013-05-25 20:41:00,40.2,38.1,29.72,NW,322,6.0,15.0,92,0.12,,OVC050,0.73,0.00,VWS V14.01,2013-05-26 00:41:00,
2013-05-25 20:51:00,39.8,38.0,29.73,NW,308,9.0,17.0,93,0.17,,OVC050,0.78,0.00,VWS V14.01,2013-05-26 00:51:00,
2013-05-25 21:01:00,38.9,37.0,29.73,NNW,347,11.0,20.0,93,0.20,,OVC050,0.81,0.00,VWS V14.01,2013-05-26 01:01:00,
2013-05-25 21:11:00,38.0,36.2,29.73,NW,317,10.0,19.0,93,0.23,,OVC041,0.85,0.00,VWS V14.01,2013-05-26 01:11:00,
2013-05-25 21:21:00,37.6,36.0,29.73,WNW,288,6.0,15.0,94,0.25,,OVC041,0.89,0.00,VWS V14.01,2013-05-26 01:21:00,
2013-05-25 21:31:00,37.5,35.9,29.73,NW,318,7.0,18.0,94,0.25,,OVC041,0.91,0.00,VWS V14.01,2013-05-26 01:31:00,
2013-05-25 21:41:00,37.5,36.2,29.73,WNW,285,7.0,13.0,95,0.24,,OVC028,0.94,0.00,VWS V14.01,2013-05-26 01:41:00,
2013-05-25 21:51:00,37.3,36.0,29.73,WNW,287,9.0,14.0,95,0.21,,OVC028,0.94,0.00,VWS V14.01,2013-05-26 01:51:00,
2013-05-25 22:01:00,37.5,36.5,29.72,WNW,292,14.0,15.0,96,0.18,,OVC028,0.96,0.00,VWS V14.01,2013-05-26 02:01:00,
2013-05-25 22:11:00,37.6,36.6,29.72,North,354,7.0,19.0,96,0.17,,OVC029,0.98,0.00,VWS V14.01,2013-05-26 02:11:00,
2013-05-25 22:21:00,37.8,36.8,29.72,WNW,287,7.0,17.0,96,0.14,,OVC029,0.99,0.00,VWS V14.01,2013-05-26 02:21:00,
2013-05-25 22:31:00,37.6,36.6,29.72,NNW,345,6.0,19.0,96,0.12,,OVC029,1.01,0.00,VWS V14.01,2013-05-26 02:31:00,
2013-05-25 22:41:00,37.3,36.0,29.72,WNW,290,17.0,17.0,95,0.11,,OVC026,1.02,0.00,VWS V14.01,2013-05-26 02:41:00,
2013-05-25 22:51:00,37.0,35.7,29.72,NNW,337,4.0,17.0,95,0.10,,OVC026,1.04,0.00,VWS V14.01,2013-05-26 02:51:00,
2013-05-25 23:01:00,36.9,35.6,29.72,WNW,283,10.0,15.0,95,0.11,,OVC026,1.05,0.00,VWS V14.01,2013-05-26 03:01:00,
2013-05-25 23:11:00,36.8,35.5,29.72,WNW,283,13.0,16.0,95,0.11,,OVC021,1.07,0.00,VWS V14.01,2013-05-26 03:11:00,
2013-05-25 23:21:00,36.0,35.0,29.71,NW,313,10.0,16.0,96,0.10,,OVC021,1.08,0.00,VWS V14.01,2013-05-26 03:21:00,
2013-05-25 23:31:00,35.9,34.9,29.71,NNW,335,10.0,14.0,96,0.10,,OVC021,1.09,0.00,VWS V14.01,2013-05-26 03:31:00,
2013-05-25 23:41:00,36.0,35.0,29.71,NW,314,13.0,14.0,96,0.08,,OVC021,1.09,0.00,VWS V14.01,2013-05-26 03:41:00,
2013-05-25 23:51:00,36.3,35.5,29.70,WNW,285,6.0,13.0,97,0.07,,OVC021,1.09,0.00,VWS V14.01,2013-05-26 03:51:00,